Time;durP1;ratioP1;P1;durP2;ratioP2;P2;SDS_P1;SDS_P2;PMS_P1;PMS_P2;Temp;Humidity;BMP_temperature;BMP_pressure;BME280_temperature;BME280_humidity;BME280_pressure;Samples;Min_cycle;Max_cycle;Signal;HPM_P1;HPM_P2
2023/05/10 00:00:33;;;;;;;;;;;14.60;64.50;;;;;;5032853;28;87482;-41
2023/05/10 00:02:58;;;;;;;;;;;14.60;64.50;;;;;;5033832;28;86762;-41
2023/05/10 00:05:24;;;;;;;;;;;14.60;64.50;;;;;;5034674;28;87131;-41
2023/05/10 00:07:50;;;;;;;;;;;14.60;64.60;;;;;;5036027;28;87318;-41
2023/05/10 00:10:15;;;;;;;;;;;14.50;64.50;;;;;;5032077;28;87996;-42
2023/05/10 00:12:41;;;;;;;;;;;14.50;64.50;;;;;;5034580;27;88336;-41
2023/05/10 00:15:09;;;;;;;;;;;14.60;64.50;;;;;;5033468;28;87196;-41
2023/05/10 00:17:34;;;;;;;;;;;14.50;64.50;;;;;;5032238;28;87609;-40
2023/05/10 00:20:00;;;;;;;;;;;14.50;64.50;;;;;;5033838;27;87788;-41
2023/05/10 00:22:25;;;;;;;;;;;14.50;64.60;;;;;;5034319;28;87961;-41
2023/05/10 00:24:51;;;;;;;;;;;14.50;64.60;;;;;;5032635;28;87185;-40
2023/05/10 00:27:16;;;;;;;;;;;14.50;64.60;;;;;;5033072;28;87562;-41
2023/05/10 00:29:42;;;;;;;;;;;14.50;64.60;;;;;;5036921;28;88205;-40
2023/05/10 00:32:08;;;;;;;;;;;14.50;64.60;;;;;;5032833;28;87434;-41
2023/05/10 00:34:33;;;;;;;;;;;14.50;64.60;;;;;;5031016;28;90376;-41
2023/05/10 00:36:59;;;;;;;;;;;14.40;64.60;;;;;;5034370;28;87177;-41
2023/05/10 00:39:26;;;;;;;;;;;14.40;64.60;;;;;;5033647;28;87638;-41
2023/05/10 00:41:51;;;;;;;;;;;14.40;64.60;;;;;;5031414;28;89392;-40
2023/05/10 00:44:18;;;;;;;;;;;14.40;64.60;;;;;;5033313;28;87159;-40
2023/05/10 00:46:44;;;;;;;;;;;14.40;64.70;;;;;;5034171;28;87296;-41
2023/05/10 00:49:09;;;;;;;;;;;14.40;64.70;;;;;;5028031;28;88080;-40
2023/05/10 00:51:36;;;;;;;;;;;14.40;64.70;;;;;;5035541;27;86885;-41
2023/05/10 00:54:02;;;;;;;;;;;14.40;64.70;;;;;;5033543;28;88460;-41
2023/05/10 00:56:29;;;;;;;;;;;14.40;64.70;;;;;;5032597;28;87005;-41
2023/05/10 00:58:55;;;;;;;;;;;14.40;64.70;;;;;;5031133;28;87961;-41
2023/05/10 01:01:21;;;;;;;;;;;14.40;64.70;;;;;;5033397;28;88064;-41
2023/05/10 01:03:46;;;;;;;;;;;14.30;64.70;;;;;;5032306;28;87189;-41
2023/05/10 01:06:12;;;;;;;;;;;14.40;64.80;;;;;;5031702;28;87611;-40
2023/05/10 01:08:38;;;;;;;;;;;14.30;64.70;;;;;;5032592;28;88244;-41
2023/05/10 01:11:03;;;;;;;;;;;14.30;64.90;;;;;;5033684;28;87633;-41
2023/05/10 01:13:29;;;;;;;;;;;14.30;64.80;;;;;;5034200;28;87188;-41
2023/05/10 01:15:55;;;;;;;;;;;14.30;64.70;;;;;;5032747;28;86379;-41
2023/05/10 01:18:21;;;;;;;;;;;14.30;64.80;;;;;;5033622;28;88307;-41
2023/05/10 01:20:48;;;;;;;;;;;14.30;64.80;;;;;;5032200;28;88282;-41
2023/05/10 01:23:23;;;;;;;;;;;14.30;64.80;;;;;;5030313;28;88018;-40
2023/05/10 01:25:48;;;;;;;;;;;14.20;64.80;;;;;;5031379;28;88391;-41
2023/05/10 01:28:33;;;;;;;;;;;14.20;64.80;;;;;;5033251;28;87391;-41
2023/05/10 01:31:04;;;;;;;;;;;14.30;64.80;;;;;;5033796;28;87298;-41
2023/05/10 01:33:35;;;;;;;;;;;14.20;64.70;;;;;;5035563;28;88801;-40
2023/05/10 01:36:06;;;;;;;;;;;14.20;64.80;;;;;;5028561;28;86978;-42
2023/05/10 01:38:41;;;;;;;;;;;14.20;64.80;;;;;;5030672;27;88894;-41
2023/05/10 01:41:28;;;;;;;;;;;14.20;64.80;;;;;;5032163;28;87426;-41
2023/05/10 01:43:56;;;;;;;;;;;14.20;64.90;;;;;;5032074;28;86985;-41
2023/05/10 01:46:27;;;;;;;;;;;14.20;64.90;;;;;;5031573;28;87411;-41
2023/05/10 01:48:54;;;;;;;;;;;14.10;64.90;;;;;;5030068;28;88230;-41
2023/05/10 01:51:21;;;;;;;;;;;14.10;65.00;;;;;;5032637;28;87015;-41
2023/05/10 01:53:47;;;;;;;;;;;14.20;64.90;;;;;;5033224;28;87247;-41
2023/05/10 01:56:14;;;;;;;;;;;14.10;64.90;;;;;;5029896;28;87998;-41
2023/05/10 01:58:40;;;;;;;;;;;14.10;64.90;;;;;;5031501;28;88848;-41
2023/05/10 02:01:07;;;;;;;;;;;14.10;64.90;;;;;;5032842;28;89399;-41
2023/05/10 02:03:34;;;;;;;;;;;14.10;64.90;;;;;;5031433;27;87095;-42
2023/05/10 02:06:00;;;;;;;;;;;14.10;64.90;;;;;;5034962;28;87387;-41
2023/05/10 02:08:26;;;;;;;;;;;14.10;64.90;;;;;;5035902;28;88022;-41
2023/05/10 02:10:53;;;;;;;;;;;14.10;64.90;;;;;;5036362;28;88099;-41
2023/05/10 02:13:19;;;;;;;;;;;14.10;64.90;;;;;;5033223;28;89427;-41
2023/05/10 02:15:47;;;;;;;;;;;14.10;65.00;;;;;;5034628;28;87891;-42
2023/05/10 02:18:13;;;;;;;;;;;14.10;64.90;;;;;;5039368;28;87055;-41
2023/05/10 02:20:39;;;;;;;;;;;14.10;64.90;;;;;;5034792;28;88027;-41
2023/05/10 02:23:05;;;;;;;;;;;14.10;64.90;;;;;;5034031;28;87105;-41
2023/05/10 02:25:31;;;;;;;;;;;14.10;65.00;;;;;;5036208;28;87258;-41
2023/05/10 02:27:57;;;;;;;;;;;14.00;65.00;;;;;;5035763;28;88023;-41
2023/05/10 02:30:23;;;;;;;;;;;14.00;64.90;;;;;;5034462;28;86560;-41
2023/05/10 02:32:49;;;;;;;;;;;14.00;65.00;;;;;;5034667;27;86986;-41
2023/05/10 02:35:16;;;;;;;;;;;14.00;65.00;;;;;;5036108;28;87132;-41
2023/05/10 02:37:41;;;;;;;;;;;14.00;64.90;;;;;;5033561;28;88107;-41
2023/05/10 02:40:08;;;;;;;;;;;14.00;65.00;;;;;;5036831;27;88409;-41
2023/05/10 02:42:35;;;;;;;;;;;14.00;65.00;;;;;;5036042;28;87169;-41
2023/05/10 02:45:02;;;;;;;;;;;14.00;65.00;;;;;;5035455;28;87411;-41
2023/05/10 02:47:31;;;;;;;;;;;14.00;65.00;;;;;;5033107;28;89627;-42
2023/05/10 02:49:56;;;;;;;;;;;14.00;65.00;;;;;;5034573;28;87098;-41
2023/05/10 02:52:28;;;;;;;;;;;14.00;65.00;;;;;;5036064;28;87374;-42
2023/05/10 02:54:55;;;;;;;;;;;13.90;65.00;;;;;;5034999;28;86998;-41
2023/05/10 02:57:24;;;;;;;;;;;13.90;65.00;;;;;;5033437;28;87221;-41
2023/05/10 02:59:51;;;;;;;;;;;13.90;65.20;;;;;;5034470;28;87319;-41
2023/05/10 03:02:16;;;;;;;;;;;13.90;65.20;;;;;;5037219;28;90396;-41
2023/05/10 03:04:42;;;;;;;;;;;13.90;65.00;;;;;;5033841;28;88365;-41
2023/05/10 03:07:07;;;;;;;;;;;13.90;65.10;;;;;;5033434;28;88027;-41
2023/05/10 03:09:33;;;;;;;;;;;13.90;65.10;;;;;;5035900;28;87136;-41
2023/05/10 03:12:02;;;;;;;;;;;13.90;65.10;;;;;;5034793;28;87061;-41
2023/05/10 03:14:34;;;;;;;;;;;13.90;65.00;;;;;;5032566;28;89219;-42
2023/05/10 03:17:11;;;;;;;;;;;13.90;65.10;;;;;;5033733;28;87792;-41
2023/05/10 03:19:44;;;;;;;;;;;13.80;65.10;;;;;;5032033;28;87407;-41
2023/05/10 03:22:10;;;;;;;;;;;13.80;65.00;;;;;;5032688;28;87963;-41
2023/05/10 03:24:36;;;;;;;;;;;13.80;65.10;;;;;;5037051;28;87104;-41
2023/05/10 03:27:04;;;;;;;;;;;13.80;65.10;;;;;;5034276;28;90593;-42
2023/05/10 03:29:30;;;;;;;;;;;13.80;65.10;;;;;;5033887;28;87181;-41
2023/05/10 03:31:57;;;;;;;;;;;13.80;65.10;;;;;;5032653;27;89017;-41
2023/05/10 03:34:23;;;;;;;;;;;13.80;65.20;;;;;;5034611;28;87920;-41
2023/05/10 03:36:49;;;;;;;;;;;13.70;65.20;;;;;;5034789;28;87223;-41
2023/05/10 03:39:15;;;;;;;;;;;13.70;65.20;;;;;;5032454;28;89232;-41
2023/05/10 03:41:41;;;;;;;;;;;13.70;65.20;;;;;;5033290;28;88134;-41
2023/05/10 03:44:06;;;;;;;;;;;13.80;65.20;;;;;;5038563;28;86471;-42
2023/05/10 03:46:32;;;;;;;;;;;13.80;65.10;;;;;;5032747;28;89584;-41
2023/05/10 03:48:57;;;;;;;;;;;13.70;65.20;;;;;;5033240;28;87618;-41
2023/05/10 03:51:25;;;;;;;;;;;13.70;65.20;;;;;;5034705;28;88070;-42
2023/05/10 03:53:50;;;;;;;;;;;13.70;65.20;;;;;;5033351;28;89742;-41
2023/05/10 03:56:16;;;;;;;;;;;13.70;65.20;;;;;;5032841;28;87186;-41
2023/05/10 03:58:41;;;;;;;;;;;13.70;65.20;;;;;;5034442;28;87458;-41
2023/05/10 04:01:07;;;;;;;;;;;13.70;65.20;;;;;;5033813;28;88991;-41
2023/05/10 04:03:32;;;;;;;;;;;13.70;65.20;;;;;;5032002;28;87170;-41
2023/05/10 04:05:58;;;;;;;;;;;13.70;65.20;;;;;;5035888;28;87472;-41
2023/05/10 04:08:24;;;;;;;;;;;13.70;65.20;;;;;;5035378;28;86382;-41
2023/05/10 04:10:49;;;;;;;;;;;13.70;65.40;;;;;;5032844;28;87109;-41
2023/05/10 04:13:15;;;;;;;;;;;13.70;65.30;;;;;;5031615;28;89104;-41
2023/05/10 04:15:41;;;;;;;;;;;13.60;65.30;;;;;;5034349;28;88056;-41
2023/05/10 04:18:06;;;;;;;;;;;13.60;65.20;;;;;;5033305;28;88360;-41
2023/05/10 04:20:32;;;;;;;;;;;13.70;65.30;;;;;;5032116;28;88036;-42
2023/05/10 04:22:58;;;;;;;;;;;13.60;65.20;;;;;;5034559;28;87108;-41
2023/05/10 04:25:23;;;;;;;;;;;13.60;65.30;;;;;;5033988;28;87935;-40
2023/05/10 04:27:49;;;;;;;;;;;13.60;65.30;;;;;;5033550;28;88000;-42
2023/05/10 04:30:14;;;;;;;;;;;13.60;65.30;;;;;;5033481;28;87352;-41
2023/05/10 04:32:40;;;;;;;;;;;13.60;65.40;;;;;;5034199;28;87363;-41
2023/05/10 04:35:05;;;;;;;;;;;13.60;66.10;;;;;;5027932;28;87780;-41
2023/05/10 04:37:31;;;;;;;;;;;13.60;65.50;;;;;;5032208;27;89445;-40
2023/05/10 04:39:56;;;;;;;;;;;13.60;65.40;;;;;;5032327;28;90627;-41
2023/05/10 04:42:22;;;;;;;;;;;13.60;65.30;;;;;;5032000;28;87586;-41
2023/05/10 04:44:47;;;;;;;;;;;13.60;65.30;;;;;;5031569;27;87917;-41
2023/05/10 04:47:13;;;;;;;;;;;13.60;65.20;;;;;;5033260;28;87974;-41
2023/05/10 04:49:38;;;;;;;;;;;13.50;65.20;;;;;;5035439;28;87056;-41
2023/05/10 04:52:04;;;;;;;;;;;13.50;65.20;;;;;;5030830;28;87278;-41
2023/05/10 04:54:29;;;;;;;;;;;13.50;65.20;;;;;;5033237;28;87009;-41
2023/05/10 04:56:55;;;;;;;;;;;13.50;65.20;;;;;;5033546;28;87230;-41
2023/05/10 04:59:20;;;;;;;;;;;13.50;65.10;;;;;;5031014;28;87992;-41
2023/05/10 05:01:46;;;;;;;;;;;13.50;65.20;;;;;;5032377;28;87548;-40
2023/05/10 05:04:11;;;;;;;;;;;13.50;65.30;;;;;;5032474;28;87908;-41
2023/05/10 05:06:37;;;;;;;;;;;13.50;65.30;;;;;;5030996;28;89864;-41
2023/05/10 05:09:02;;;;;;;;;;;13.50;65.30;;;;;;5032423;28;87239;-41
2023/05/10 05:11:28;;;;;;;;;;;13.50;65.30;;;;;;5035593;28;87483;-41
2023/05/10 05:13:53;;;;;;;;;;;13.50;65.20;;;;;;5031737;28;87096;-42
2023/05/10 05:16:19;;;;;;;;;;;13.40;65.20;;;;;;5030674;27;88622;-42
2023/05/10 05:18:44;;;;;;;;;;;13.40;65.20;;;;;;5033142;28;87594;-41
2023/05/10 05:21:14;;;;;;;;;;;13.40;65.10;;;;;;5032930;28;86494;-41
2023/05/10 05:23:40;;;;;;;;;;;13.40;65.10;;;;;;5030682;28;87397;-41
2023/05/10 05:26:05;;;;;;;;;;;13.40;65.20;;;;;;5032103;28;88059;-41
2023/05/10 05:28:33;;;;;;;;;;;13.40;65.10;;;;;;5032631;28;88274;-41
2023/05/10 05:30:59;;;;;;;;;;;13.40;65.10;;;;;;5034131;28;88301;-42
2023/05/10 05:33:24;;;;;;;;;;;13.40;65.10;;;;;;5030784;28;87104;-42
2023/05/10 05:35:50;;;;;;;;;;;13.40;65.10;;;;;;5033541;28;87308;-40
2023/05/10 05:38:17;;;;;;;;;;;13.40;65.10;;;;;;5029119;28;89758;-41
2023/05/10 05:40:42;;;;;;;;;;;13.30;65.10;;;;;;5030860;28;87097;-41
2023/05/10 05:43:08;;;;;;;;;;;13.30;65.10;;;;;;5032405;28;87426;-41
2023/05/10 05:45:33;;;;;;;;;;;13.30;65.10;;;;;;5033457;28;87286;-41
2023/05/10 05:47:59;;;;;;;;;;;13.30;65.10;;;;;;5030598;28;87136;-41
2023/05/10 05:50:24;;;;;;;;;;;13.30;65.10;;;;;;5031662;28;87484;-42
2023/05/10 05:52:50;;;;;;;;;;;13.30;65.10;;;;;;5035047;28;88821;-41
2023/05/10 05:55:16;;;;;;;;;;;13.30;65.10;;;;;;5031054;28;88728;-41
2023/05/10 05:57:42;;;;;;;;;;;13.30;65.10;;;;;;5030474;28;88282;-41
2023/05/10 06:00:07;;;;;;;;;;;13.30;65.10;;;;;;5032887;28;87006;-40
2023/05/10 06:02:33;;;;;;;;;;;13.30;65.10;;;;;;5031261;28;87340;-41
2023/05/10 06:04:58;;;;;;;;;;;13.30;65.10;;;;;;5029482;28;88208;-41
2023/05/10 06:07:25;;;;;;;;;;;13.30;65.10;;;;;;5032427;28;87315;-40
2023/05/10 06:09:50;;;;;;;;;;;13.20;65.00;;;;;;5032543;28;88430;-41
2023/05/10 06:12:16;;;;;;;;;;;13.20;65.10;;;;;;5029633;28;88231;-41
2023/05/10 06:14:42;;;;;;;;;;;13.30;65.00;;;;;;5034280;28;87225;-41
2023/05/10 06:17:07;;;;;;;;;;;13.20;65.00;;;;;;5031638;28;90406;-41
2023/05/10 06:19:33;;;;;;;;;;;13.20;65.10;;;;;;5030345;28;87293;-41
2023/05/10 06:21:58;;;;;;;;;;;13.20;65.00;;;;;;5030744;28;88578;-41
2023/05/10 06:24:24;;;;;;;;;;;13.20;65.00;;;;;;5032155;28;87678;-41
2023/05/10 06:26:50;;;;;;;;;;;13.20;65.10;;;;;;5031607;28;87035;-41
2023/05/10 06:29:15;;;;;;;;;;;13.20;65.10;;;;;;5030110;27;88934;-41
2023/05/10 06:31:41;;;;;;;;;;;13.20;65.00;;;;;;5031894;28;88598;-42
2023/05/10 06:34:07;;;;;;;;;;;13.20;65.10;;;;;;5032248;28;86429;-41
2023/05/10 06:36:33;;;;;;;;;;;13.20;65.00;;;;;;5032559;27;87030;-41
2023/05/10 06:38:59;;;;;;;;;;;13.20;65.10;;;;;;5031416;28;87139;-41
2023/05/10 06:41:24;;;;;;;;;;;13.20;65.00;;;;;;5032053;28;87980;-41
2023/05/10 06:43:50;;;;;;;;;;;13.20;65.00;;;;;;5030099;28;89172;-41
2023/05/10 06:46:15;;;;;;;;;;;13.10;65.00;;;;;;5030967;28;87080;-41
2023/05/10 06:48:41;;;;;;;;;;;13.10;65.10;;;;;;5032143;28;87423;-41
2023/05/10 06:51:06;;;;;;;;;;;13.10;65.00;;;;;;5033386;28;87923;-41
2023/05/10 06:53:32;;;;;;;;;;;13.10;65.00;;;;;;5033623;28;87126;-41
2023/05/10 06:55:58;;;;;;;;;;;13.10;65.10;;;;;;5035664;27;88837;-42
2023/05/10 06:58:23;;;;;;;;;;;13.10;65.20;;;;;;5037793;28;87254;-42
2023/05/10 07:00:49;;;;;;;;;;;13.10;65.20;;;;;;5033128;28;87093;-41
2023/05/10 07:03:14;;;;;;;;;;;13.10;65.10;;;;;;5034583;28;88325;-41
2023/05/10 07:05:40;;;;;;;;;;;13.10;65.10;;;;;;5034599;28;88176;-41
2023/05/10 07:08:05;;;;;;;;;;;13.10;65.20;;;;;;5033059;28;88232;-41
2023/05/10 07:10:31;;;;;;;;;;;13.00;65.10;;;;;;5033854;28;88249;-41
2023/05/10 07:12:56;;;;;;;;;;;13.10;65.20;;;;;;5034854;28;87548;-41
2023/05/10 07:15:22;;;;;;;;;;;13.10;65.20;;;;;;5033672;28;87469;-41
2023/05/10 07:17:48;;;;;;;;;;;13.00;65.10;;;;;;5033153;28;89789;-41
2023/05/10 07:20:13;;;;;;;;;;;13.00;65.10;;;;;;5038385;28;87134;-41
2023/05/10 07:22:39;;;;;;;;;;;13.00;65.10;;;;;;5034304;28;86334;-41
2023/05/10 07:25:04;;;;;;;;;;;13.10;65.10;;;;;;5033303;28;87097;-41
2023/05/10 07:27:30;;;;;;;;;;;13.10;65.10;;;;;;5035391;28;87116;-40
2023/05/10 07:29:56;;;;;;;;;;;13.00;65.10;;;;;;5033977;28;89130;-41
2023/05/10 07:32:21;;;;;;;;;;;13.10;65.20;;;;;;5033006;28;88756;-42
2023/05/10 07:34:47;;;;;;;;;;;13.00;65.10;;;;;;5034070;27;88718;-41
2023/05/10 07:37:12;;;;;;;;;;;13.00;65.20;;;;;;5034438;28;88068;-41
2023/05/10 07:39:38;;;;;;;;;;;13.00;65.20;;;;;;5031212;28;87194;-41
2023/05/10 07:42:04;;;;;;;;;;;13.00;65.20;;;;;;5033021;28;88005;-40
2023/05/10 07:44:29;;;;;;;;;;;13.00;65.30;;;;;;5034532;28;87555;-41
2023/05/10 07:46:55;;;;;;;;;;;13.00;65.30;;;;;;5033370;28;87373;-41
2023/05/10 07:49:21;;;;;;;;;;;13.00;65.30;;;;;;5032126;28;89604;-42
2023/05/10 07:51:46;;;;;;;;;;;13.00;65.30;;;;;;5034946;28;87163;-41
2023/05/10 07:54:12;;;;;;;;;;;13.00;65.20;;;;;;5033219;28;87991;-41
2023/05/10 07:56:39;;;;;;;;;;;12.90;65.30;;;;;;5032033;28;88097;-41
2023/05/10 07:59:06;;;;;;;;;;;12.90;65.30;;;;;;5033500;28;87132;-40
2023/05/10 08:01:33;;;;;;;;;;;12.90;65.30;;;;;;5035492;28;87957;-41
2023/05/10 08:03:58;;;;;;;;;;;12.90;65.30;;;;;;5032463;28;87934;-41
2023/05/10 08:06:26;;;;;;;;;;;12.90;65.40;;;;;;5036140;28;87088;-42
2023/05/10 08:08:53;;;;;;;;;;;12.90;65.30;;;;;;5031610;28;89570;-40
2023/05/10 08:11:20;;;;;;;;;;;12.90;65.30;;;;;;5033400;28;86912;-41
2023/05/10 08:13:46;;;;;;;;;;;12.90;65.30;;;;;;5033837;28;87491;-41
2023/05/10 08:16:11;;;;;;;;;;;12.90;65.30;;;;;;5032483;28;87980;-41
2023/05/10 08:18:37;;;;;;;;;;;12.90;65.30;;;;;;5031469;28;88695;-41
2023/05/10 08:21:03;;;;;;;;;;;12.90;65.30;;;;;;5028671;28;88403;-41
2023/05/10 08:23:28;;;;;;;;;;;12.90;65.40;;;;;;5035209;28;87560;-41
2023/05/10 08:25:54;;;;;;;;;;;12.90;65.30;;;;;;5034736;28;87387;-41
2023/05/10 08:28:19;;;;;;;;;;;12.90;65.30;;;;;;5032362;28;88047;-41
2023/05/10 08:30:45;;;;;;;;;;;12.90;65.40;;;;;;5032558;28;86989;-41
2023/05/10 08:33:10;;;;;;;;;;;12.90;65.40;;;;;;5034230;28;87546;-41
2023/05/10 08:35:36;;;;;;;;;;;12.90;65.50;;;;;;5032914;28;88774;-41
2023/05/10 08:38:01;;;;;;;;;;;12.90;65.60;;;;;;5031783;28;87135;-40
2023/05/10 08:40:27;;;;;;;;;;;12.90;65.50;;;;;;5033696;28;87308;-41
2023/05/10 08:42:58;;;;;;;;;;;12.90;65.50;;;;;;5032680;28;88892;-41
2023/05/10 08:45:24;;;;;;;;;;;12.90;65.50;;;;;;5031913;28;87026;-41
2023/05/10 08:47:51;;;;;;;;;;;12.90;65.50;;;;;;5032050;28;87613;-41
2023/05/10 08:50:19;;;;;;;;;;;12.90;65.50;;;;;;5033725;28;87163;-42
2023/05/10 08:52:45;;;;;;;;;;;12.90;65.50;;;;;;5033539;28;87456;-40
2023/05/10 08:55:11;;;;;;;;;;;12.90;65.50;;;;;;5031414;28;88111;-41
2023/05/10 08:57:36;;;;;;;;;;;12.90;65.50;;;;;;5033123;28;87137;-42
2023/05/10 09:00:02;;;;;;;;;;;12.90;65.60;;;;;;5034718;28;87431;-41
2023/05/10 09:02:27;;;;;;;;;;;12.90;65.50;;;;;;5031412;28;87939;-40
2023/05/10 09:04:53;;;;;;;;;;;12.90;65.50;;;;;;5031925;28;87212;-41
2023/05/10 09:07:19;;;;;;;;;;;12.90;65.50;;;;;;5034983;28;87985;-42
2023/05/10 09:09:45;;;;;;;;;;;12.90;65.50;;;;;;5032494;28;87022;-40
2023/05/10 09:12:11;;;;;;;;;;;12.90;65.60;;;;;;5031274;27;87265;-40
2023/05/10 09:14:37;;;;;;;;;;;12.90;65.60;;;;;;5033104;28;87937;-41
2023/05/10 09:17:04;;;;;;;;;;;12.90;65.70;;;;;;5032741;28;87694;-41
2023/05/10 09:19:29;;;;;;;;;;;12.80;65.60;;;;;;5031216;28;87276;-41
2023/05/10 09:21:55;;;;;;;;;;;12.90;66.30;;;;;;5032189;28;88012;-41
2023/05/10 09:24:25;;;;;;;;;;;12.90;65.80;;;;;;5034267;28;86490;-41
2023/05/10 09:26:51;;;;;;;;;;;12.90;65.70;;;;;;5031527;28;87030;-41
2023/05/10 09:29:16;;;;;;;;;;;12.90;65.80;;;;;;5033381;28;88047;-41
2023/05/10 09:31:54;;;;;;;;;;;12.80;65.70;;;;;;5032336;28;87939;-40
2023/05/10 09:34:29;;;;;;;;;;;12.80;65.70;;;;;;5032521;28;88233;-41
2023/05/10 09:36:56;;;;;;;;;;;12.80;65.70;;;;;;5033451;28;87426;-41
2023/05/10 09:39:35;;;;;;;;;;;12.80;65.80;;;;;;5027212;28;87374;-41
2023/05/10 09:42:04;;;;;;;;;;;12.80;65.70;;;;;;5030197;28;89454;-40
2023/05/10 09:44:31;;;;;;;;;;;12.80;65.80;;;;;;5031565;28;87187;-40
2023/05/10 09:46:56;;;;;;;;;;;12.80;65.80;;;;;;5033548;28;87996;-41
2023/05/10 09:49:22;;;;;;;;;;;12.80;65.80;;;;;;5034487;28;88774;-41
2023/05/10 09:51:59;;;;;;;;;;;12.80;65.80;;;;;;5030746;28;87011;-40
2023/05/10 09:54:24;;;;;;;;;;;12.90;65.90;;;;;;5031353;28;88324;-40
2023/05/10 09:56:50;;;;;;;;;;;12.80;65.90;;;;;;5032272;28;87926;-41
2023/05/10 09:59:16;;;;;;;;;;;12.80;66.00;;;;;;5031762;28;88117;-41
2023/05/10 10:01:49;;;;;;;;;;;12.80;65.90;;;;;;5029964;28;89375;-41
2023/05/10 10:04:14;;;;;;;;;;;12.80;65.90;;;;;;5031744;28;87206;-40
2023/05/10 10:06:40;;;;;;;;;;;12.80;65.90;;;;;;5033046;28;88867;-41
2023/05/10 10:09:06;;;;;;;;;;;12.90;66.10;;;;;;5030001;28;89928;-40
2023/05/10 10:11:33;;;;;;;;;;;12.80;66.00;;;;;;5033160;28;87035;-41
2023/05/10 10:13:59;;;;;;;;;;;12.80;65.90;;;;;;5032856;28;87439;-41
2023/05/10 10:16:26;;;;;;;;;;;12.80;66.10;;;;;;5031656;28;87065;-41
2023/05/10 10:18:52;;;;;;;;;;;12.80;66.00;;;;;;5030280;28;87421;-40
2023/05/10 10:21:18;;;;;;;;;;;12.80;66.20;;;;;;5029532;28;89206;-41
2023/05/10 10:23:44;;;;;;;;;;;12.80;66.20;;;;;;5030897;28;87137;-41
2023/05/10 10:26:10;;;;;;;;;;;12.80;66.00;;;;;;5035248;28;87471;-41
2023/05/10 10:28:45;;;;;;;;;;;12.90;66.00;;;;;;5034728;28;88139;-40
2023/05/10 10:31:17;;;;;;;;;;;12.80;66.20;;;;;;5030739;28;87162;-41
2023/05/10 10:33:56;;;;;;;;;;;12.80;66.00;;;;;;5036305;28;87582;-41
2023/05/10 10:36:22;;;;;;;;;;;12.80;66.30;;;;;;5033696;28;86981;-41
2023/05/10 10:38:47;;;;;;;;;;;12.80;66.30;;;;;;5036188;28;87423;-41
2023/05/10 10:41:31;;;;;;;;;;;12.80;66.30;;;;;;5035187;28;88712;-41
2023/05/10 10:44:15;;;;;;;;;;;12.80;66.40;;;;;;5034020;28;87200;-40
2023/05/10 10:47:00;;;;;;;;;;;12.80;66.30;;;;;;5034119;28;88044;-41
2023/05/10 10:49:26;;;;;;;;;;;12.80;66.10;;;;;;5034402;28;89292;-41
2023/05/10 10:52:10;;;;;;;;;;;12.80;66.00;;;;;;5033890;28;87173;-41
2023/05/10 10:54:36;;;;;;;;;;;12.80;66.20;;;;;;5031280;28;87204;-41
2023/05/10 10:57:11;;;;;;;;;;;12.70;66.50;;;;;;5036396;28;87290;-41
2023/05/10 10:59:41;;;;;;;;;;;12.70;66.40;;;;;;5032303;28;87345;-41
2023/05/10 11:02:07;;;;;;;;;;;12.70;66.30;;;;;;5032887;28;88105;-41
2023/05/10 11:04:41;;;;;;;;;;;12.70;66.20;;;;;;5034504;28;86437;-41
2023/05/10 11:07:17;;;;;;;;;;;12.70;66.30;;;;;;5035310;27;87355;-41
2023/05/10 11:09:43;;;;;;;;;;;12.80;66.20;;;;;;5034846;28;88347;-41
2023/05/10 11:12:08;;;;;;;;;;;12.70;66.00;;;;;;5032888;28;88772;-41
2023/05/10 11:14:34;;;;;;;;;;;12.70;66.10;;;;;;5033479;28;88354;-41
2023/05/10 11:17:00;;;;;;;;;;;12.70;66.20;;;;;;5035016;28;89389;-40
2023/05/10 11:19:27;;;;;;;;;;;12.70;66.10;;;;;;5037781;28;87220;-42
2023/05/10 11:22:05;;;;;;;;;;;12.70;66.20;;;;;;5032643;28;88162;-41
2023/05/10 11:24:30;;;;;;;;;;;12.70;66.20;;;;;;5032930;28;87159;-42
2023/05/10 11:26:56;;;;;;;;;;;12.70;66.30;;;;;;5029763;28;87249;-41
2023/05/10 11:29:22;;;;;;;;;;;12.70;66.20;;;;;;5033857;28;87161;-41
2023/05/10 11:31:48;;;;;;;;;;;12.70;66.30;;;;;;5034951;28;87742;-42
2023/05/10 11:34:23;;;;;;;;;;;12.70;66.20;;;;;;5033542;28;87330;-40
2023/05/10 11:36:53;;;;;;;;;;;12.70;66.20;;;;;;5031416;27;88928;-41
2023/05/10 11:39:19;;;;;;;;;;;12.60;66.30;;;;;;5032864;28;87107;-41
2023/05/10 11:41:47;;;;;;;;;;;12.60;66.30;;;;;;5038013;28;87368;-42
2023/05/10 11:44:12;;;;;;;;;;;12.60;66.30;;;;;;5033949;28;87238;-41
2023/05/10 11:46:38;;;;;;;;;;;12.70;66.40;;;;;;5032989;28;87380;-41
2023/05/10 11:49:06;;;;;;;;;;;12.60;66.40;;;;;;5036253;28;87471;-41
2023/05/10 11:51:36;;;;;;;;;;;12.60;66.50;;;;;;5032775;28;86982;-42
2023/05/10 11:54:02;;;;;;;;;;;12.70;66.50;;;;;;5034423;28;88997;-41
2023/05/10 11:56:27;;;;;;;;;;;12.70;66.50;;;;;;5034507;28;89230;-41
2023/05/10 11:58:55;;;;;;;;;;;12.70;66.50;;;;;;5029474;28;87049;-41
2023/05/10 12:01:21;;;;;;;;;;;12.70;66.40;;;;;;5034878;27;87926;-42
2023/05/10 12:03:47;;;;;;;;;;;12.70;66.40;;;;;;5034479;28;87461;-41
2023/05/10 12:06:13;;;;;;;;;;;12.70;66.50;;;;;;5033883;28;87396;-41
2023/05/10 12:08:43;;;;;;;;;;;12.70;66.60;;;;;;5032436;28;88081;-46
2023/05/10 12:11:12;;;;;;;;;;;12.70;66.60;;;;;;5033711;28;86988;-41
2023/05/10 12:13:41;;;;;;;;;;;12.70;66.60;;;;;;5034565;28;87066;-41
2023/05/10 12:16:17;;;;;;;;;;;12.70;66.70;;;;;;5032974;28;87831;-41
2023/05/10 12:18:42;;;;;;;;;;;12.70;66.70;;;;;;5029525;28;86327;-41
2023/05/10 12:21:10;;;;;;;;;;;12.70;66.70;;;;;;5032999;28;87019;-41
2023/05/10 12:23:36;;;;;;;;;;;12.70;66.70;;;;;;5037393;28;88034;-41
2023/05/10 12:26:02;;;;;;;;;;;12.60;66.80;;;;;;5032230;28;88959;-41
2023/05/10 12:28:30;;;;;;;;;;;12.60;66.80;;;;;;5031683;28;87954;-41
2023/05/10 12:30:57;;;;;;;;;;;12.60;66.80;;;;;;5033942;28;87063;-41
2023/05/10 12:33:22;;;;;;;;;;;12.60;66.80;;;;;;5034416;28;87524;-41
2023/05/10 12:35:50;;;;;;;;;;;12.60;66.80;;;;;;5031877;28;88035;-41
2023/05/10 12:38:29;;;;;;;;;;;12.60;66.80;;;;;;5032290;28;87150;-41
2023/05/10 12:40:55;;;;;;;;;;;12.60;66.80;;;;;;5030941;28;87486;-41
2023/05/10 12:43:21;;;;;;;;;;;12.60;66.70;;;;;;5031891;28;88733;-41
2023/05/10 12:45:48;;;;;;;;;;;12.60;66.80;;;;;;5036777;28;87239;-41
2023/05/10 12:48:14;;;;;;;;;;;12.60;66.90;;;;;;5032714;27;87961;-40
2023/05/10 12:50:40;;;;;;;;;;;12.60;66.90;;;;;;5031576;28;88047;-41
2023/05/10 12:53:05;;;;;;;;;;;12.60;66.90;;;;;;5032202;28;88488;-41
2023/05/10 12:55:31;;;;;;;;;;;12.60;67.00;;;;;;5033820;28;88138;-41
2023/05/10 12:57:56;;;;;;;;;;;12.60;67.60;;;;;;5032444;28;87211;-40
2023/05/10 13:00:22;;;;;;;;;;;12.60;66.90;;;;;;5031878;28;88390;-41
2023/05/10 13:02:47;;;;;;;;;;;12.60;66.80;;;;;;5033732;28;87772;-41
2023/05/10 13:05:13;;;;;;;;;;;12.60;67.00;;;;;;5032238;28;87640;-41
2023/05/10 13:07:38;;;;;;;;;;;12.60;66.90;;;;;;5034060;28;86700;-41
2023/05/10 13:10:05;;;;;;;;;;;12.60;66.90;;;;;;5032972;28;87113;-41
2023/05/10 13:12:30;;;;;;;;;;;12.60;67.00;;;;;;5033111;28;87397;-41
2023/05/10 13:14:56;;;;;;;;;;;12.60;67.00;;;;;;5030199;28;88065;-40
2023/05/10 13:17:22;;;;;;;;;;;12.60;67.00;;;;;;5031847;27;87105;-41
2023/05/10 13:19:47;;;;;;;;;;;12.60;67.00;;;;;;5033303;28;87365;-41
2023/05/10 13:22:13;;;;;;;;;;;12.60;67.00;;;;;;5031178;28;88034;-41
2023/05/10 13:24:38;;;;;;;;;;;12.60;67.00;;;;;;5031408;28;87336;-41
2023/05/10 13:27:04;;;;;;;;;;;12.60;67.00;;;;;;5033079;28;87458;-41
2023/05/10 13:29:29;;;;;;;;;;;12.60;67.00;;;;;;5034920;28;88041;-40
2023/05/10 13:31:55;;;;;;;;;;;12.60;67.10;;;;;;5031101;28;87404;-41
2023/05/10 13:34:20;;;;;;;;;;;12.60;67.00;;;;;;5032344;28;87160;-41
2023/05/10 13:36:46;;;;;;;;;;;12.60;67.10;;;;;;5032626;28;87130;-41
2023/05/10 13:39:12;;;;;;;;;;;12.60;67.10;;;;;;5030197;28;87978;-41
2023/05/10 13:41:37;;;;;;;;;;;12.60;67.20;;;;;;5032041;28;87775;-41
2023/05/10 13:44:03;;;;;;;;;;;12.60;67.20;;;;;;5032532;28;87466;-41
2023/05/10 13:46:30;;;;;;;;;;;12.60;67.30;;;;;;5031035;28;87092;-42
2023/05/10 13:48:56;;;;;;;;;;;12.60;67.20;;;;;;5030635;28;89242;-41
2023/05/10 13:51:22;;;;;;;;;;;12.60;67.30;;;;;;5036037;28;87024;-41
2023/05/10 13:53:47;;;;;;;;;;;12.60;67.40;;;;;;5031280;28;88201;-41
2023/05/10 13:56:13;;;;;;;;;;;12.60;67.30;;;;;;5031045;28;86298;-41
2023/05/10 13:58:39;;;;;;;;;;;12.60;67.30;;;;;;5032246;28;88290;-41
2023/05/10 14:01:04;;;;;;;;;;;12.60;67.10;;;;;;5034447;28;87359;-41
2023/05/10 14:03:30;;;;;;;;;;;12.60;67.20;;;;;;5033032;28;87932;-41
2023/05/10 14:05:56;;;;;;;;;;;12.60;67.30;;;;;;5035632;28;87503;-42
2023/05/10 14:08:22;;;;;;;;;;;12.60;67.30;;;;;;5036105;28;88186;-41
2023/05/10 14:10:48;;;;;;;;;;;12.60;67.30;;;;;;5037320;28;87062;-41
2023/05/10 14:13:14;;;;;;;;;;;12.60;67.30;;;;;;5034069;28;89198;-41